Port Mellon, Canada
Current Conditions -  °F | °C
As of 4:14 PM on Thursday 27 Nov 2014 (Local Time) from CYVR Reporting Station
Broken Clouds Broken Clouds  
Wind Chill: 55°   Ceiling: 7300
Heat Index: 55°   Visibility: 15mi
Dew Point: 50°   Wind: 14mph
Humidity: 82%   Direction: 150°SSE
Pressure: 29.63"   Gusts: 20mph
Location:  49.52°N, 123.48°W
Report Text: CYVR 280014Z 15012G17KT 15SM FEW010 FEW035 SCT043 BKN073 BKN090 13/10 A2963 RMK CF1SC1SC1AC2AC2 SLP032 DENSITY ALT 100FT
Loading
Personal Weather Stations






























Interactive Weather Map New forecast layout! Learn more

10-Day Weather Forecast

Advertisements
Track Severe Weather on mobile